Time;durP1;ratioP1;P1;durP2;ratioP2;P2;SDS_P1;SDS_P2;PMS_P1;PMS_P2;Temp;Humidity;BMP_temperature;BMP_pressure;BME280_temperature;BME280_humidity;BME280_pressure;Samples;Min_cycle;Max_cycle;Signal;HPM_P1;HPM_P2
2021/06/09 00:00:20;;;;;;;17.27;15.57;;;18.50;99.90;;;;;;5110534;28;20396;-83
2021/06/09 00:02:46;;;;;;;16.30;14.57;;;18.50;99.90;;;;;;5075493;28;20401;-82
2021/06/09 00:05:12;;;;;;;18.77;14.00;;;18.40;99.90;;;;;;5108071;28;20411;-82
2021/06/09 00:07:38;;;;;;;15.13;13.63;;;18.40;99.90;;;;;;5106715;28;20209;-83
2021/06/09 00:10:05;;;;;;;15.70;14.00;;;18.40;99.90;;;;;;5106935;28;20393;-83
2021/06/09 00:12:32;;;;;;;17.70;14.67;;;18.40;99.90;;;;;;5105064;28;20165;-84
2021/06/09 00:15:00;;;;;;;16.67;15.00;;;18.50;99.90;;;;;;5106151;28;20460;-84
2021/06/09 00:17:27;;;;;;;15.80;14.30;;;18.50;99.90;;;;;;5106148;28;20740;-84
2021/06/09 00:19:53;;;;;;;15.30;13.80;;;18.50;99.90;;;;;;5106222;28;20853;-83
2021/06/09 00:22:19;;;;;;;16.23;14.60;;;18.50;99.90;;;;;;5106020;28;20393;-84
2021/06/09 00:24:48;;;;;;;17.23;13.70;;;18.50;99.90;;;;;;5106095;28;20170;-84
2021/06/09 00:27:14;;;;;;;15.80;14.20;;;18.50;99.90;;;;;;5105401;28;20451;-84
2021/06/09 00:29:40;;;;;;;22.13;15.00;;;18.60;99.90;;;;;;5105501;28;20392;-84
2021/06/09 00:32:07;;;;;;;15.50;13.90;;;18.60;99.90;;;;;;5105269;28;20179;-84
2021/06/09 00:34:33;;;;;;;15.40;12.67;;;18.60;99.90;;;;;;5069933;28;20330;-84
2021/06/09 00:36:59;;;;;;;14.97;13.17;;;18.60;99.90;;;;;;5103802;28;20400;-84
2021/06/09 00:39:25;;;;;;;17.53;14.37;;;18.50;99.90;;;;;;5104654;28;20389;-84
2021/06/09 00:41:50;;;;;;;17.07;14.10;;;18.50;99.90;;;;;;5105085;28;20468;-84
2021/06/09 00:44:17;;;;;;;15.23;13.63;;;18.50;99.90;;;;;;5107560;28;20155;-84
2021/06/09 00:46:43;;;;;;;15.37;13.77;;;18.50;99.90;;;;;;5107937;28;20171;-83
2021/06/09 00:49:09;;;;;;;14.97;12.70;;;18.50;99.90;;;;;;5107186;28;20556;-84
2021/06/09 00:51:35;;;;;;;15.30;13.70;;;18.50;99.90;;;;;;5108577;28;20159;-84
2021/06/09 00:54:03;;;;;;;17.90;16.03;;;18.40;99.90;;;;;;5073770;28;20396;-84
2021/06/09 00:56:32;;;;;;;15.77;13.90;;;18.40;99.90;;;;;;5108217;28;20475;-84
2021/06/09 00:58:58;;;;;;;16.27;14.77;;;18.40;99.90;;;;;;5108529;28;20422;-84
2021/06/09 01:01:26;;;;;;;17.03;13.07;;;18.40;99.90;;;;;;5108537;28;20397;-84
2021/06/09 01:03:52;;;;;;;18.73;14.70;;;18.40;99.90;;;;;;5090677;28;20429;-84
2021/06/09 01:06:19;;;;;;;16.30;14.07;;;18.40;99.90;;;;;;5108832;28;20393;-84
2021/06/09 01:08:46;;;;;;;15.40;13.90;;;18.40;99.90;;;;;;5109220;28;20467;-84
2021/06/09 01:11:16;;;;;;;15.30;13.50;;;18.30;99.90;;;;;;5108511;28;20393;-84
2021/06/09 01:13:43;;;;;;;16.37;14.60;;;18.30;99.90;;;;;;5108922;28;20397;-84
2021/06/09 01:16:09;;;;;;;15.70;14.00;;;18.30;99.90;;;;;;5107648;28;20483;-84
2021/06/09 01:18:36;;;;;;;13.90;12.50;;;18.40;99.90;;;;;;5108301;28;20411;-83
2021/06/09 01:21:02;;;;;;;15.30;13.20;;;18.30;99.90;;;;;;5108253;28;20393;-84
2021/06/09 01:23:29;;;;;;;22.83;13.23;;;18.20;99.90;;;;;;5108809;28;20401;-83
2021/06/09 01:25:56;;;;;;;18.30;13.57;;;18.20;99.90;;;;;;5108641;28;20393;-84
2021/06/09 01:28:22;;;;;;;13.93;12.57;;;18.20;99.90;;;;;;5109432;28;20544;-84
2021/06/09 01:30:49;;;;;;;16.90;13.40;;;18.20;99.90;;;;;;5110079;28;20438;-84
2021/06/09 01:33:15;;;;;;;16.63;14.33;;;18.20;99.90;;;;;;5091957;28;20442;-82
2021/06/09 01:35:44;;;;;;;15.20;13.63;;;18.10;99.90;;;;;;5109812;28;20388;-83
2021/06/09 01:38:10;;;;;;;17.63;13.40;;;18.10;99.90;;;;;;5091345;28;20400;-82
2021/06/09 01:40:36;;;;;;;15.77;14.27;;;18.20;99.90;;;;;;5108411;28;20456;-83
2021/06/09 01:43:03;;;;;;;16.87;15.20;;;18.20;99.90;;;;;;5109643;28;20393;-83
2021/06/09 01:45:31;;;;;;;16.50;13.80;;;18.20;99.90;;;;;;5111878;28;20393;-82
2021/06/09 01:47:59;;;;;;;15.90;13.87;;;18.30;99.90;;;;;;5113614;28;20484;-82
2021/06/09 01:50:26;;;;;;;15.20;13.00;;;18.30;99.90;;;;;;5116395;28;20449;-83
2021/06/09 01:52:53;;;;;;;13.50;12.13;;;18.30;99.90;;;;;;5119565;28;20630;-82
2021/06/09 01:55:22;;;;;;;20.43;14.70;;;18.20;99.90;;;;;;5118893;28;20417;-83
2021/06/09 01:57:49;;;;;;;16.20;12.20;;;18.20;99.90;;;;;;5098389;28;20526;-83
2021/06/09 02:00:24;;;;;;;17.03;13.60;;;18.20;99.90;;;;;;5112442;28;20456;-83
2021/06/09 02:02:53;;;;;;;20.80;13.10;;;18.20;99.90;;;;;;5108970;28;20454;-83
2021/06/09 02:05:19;;;;;;;17.37;13.20;;;18.20;99.90;;;;;;5108890;28;20385;-83
2021/06/09 02:07:45;;;;;;;16.20;14.63;;;18.30;99.90;;;;;;5108387;28;20463;-83
2021/06/09 02:10:16;;;;;;;15.43;13.80;;;18.30;99.90;;;;;;5108236;28;20393;-83
2021/06/09 02:12:45;;;;;;;18.20;14.70;;;18.30;99.90;;;;;;5108924;28;20387;-83
2021/06/09 02:15:12;;;;;;;15.70;14.10;;;18.00;99.90;;;;;;5107163;28;20404;-83
2021/06/09 02:17:41;;;;;;;15.47;13.00;;;17.90;99.90;;;;;;5108963;28;20395;-83
2021/06/09 02:20:09;;;;;;;16.00;14.30;;;17.80;99.90;;;;;;5109347;28;20393;-83
2021/06/09 02:22:37;;;;;;;16.47;13.87;;;17.80;99.90;;;;;;5109219;28;20484;-83
2021/06/09 02:25:05;;;;;;;16.00;13.70;;;18.00;99.90;;;;;;5096762;28;20400;-82
2021/06/09 02:27:33;;;;;;;15.27;13.87;;;18.20;99.90;;;;;;5107960;28;20775;-83
2021/06/09 02:30:00;;;;;;;19.20;15.67;;;18.20;99.90;;;;;;5107735;28;20389;-83
2021/06/09 02:32:26;;;;;;;17.00;13.37;;;18.30;99.90;;;;;;5089377;28;20400;-83
2021/06/09 02:34:52;;;;;;;15.23;13.63;;;18.30;99.90;;;;;;5089009;28;20393;-83
2021/06/09 02:37:21;;;;;;;15.50;13.80;;;18.30;99.90;;;;;;5107951;28;20413;-82
2021/06/09 02:39:47;;;;;;;13.57;12.00;;;18.30;99.90;;;;;;5092252;28;20166;-82
2021/06/09 02:42:18;;;;;;;15.23;13.63;;;18.40;99.90;;;;;;5113408;28;20409;-83
2021/06/09 02:44:44;;;;;;;14.60;13.17;;;18.30;99.90;;;;;;5111827;28;20397;-82
2021/06/09 02:47:13;;;;;;;14.87;13.40;;;18.30;99.90;;;;;;5109648;28;20436;-83
2021/06/09 02:49:40;;;;;;;15.43;13.20;;;18.30;99.90;;;;;;5105446;28;20409;-82
2021/06/09 02:52:21;;;;;;;14.60;13.23;;;18.30;99.90;;;;;;5111311;28;20389;-82
2021/06/09 02:55:00;;;;;;;15.30;13.80;;;18.40;99.90;;;;;;5107642;28;20453;-84
2021/06/09 02:58:02;;;;;;;14.50;13.00;;;18.40;99.90;;;;;;5107737;28;20711;-84
2021/06/09 03:00:33;;;;;;;18.03;14.73;;;18.40;99.90;;;;;;5106296;28;20427;-84
2021/06/09 03:03:20;;;;;;;12.90;11.73;;;18.30;99.90;;;;;;5106222;28;20393;-84
2021/06/09 03:05:59;;;;;;;14.77;13.37;;;18.40;99.90;;;;;;5106122;28;20428;-82
2021/06/09 03:08:36;;;;;;;15.97;13.83;;;18.40;99.90;;;;;;5105912;28;20471;-82
2021/06/09 03:11:22;;;;;;;18.83;13.53;;;18.40;99.90;;;;;;5106411;28;20397;-84
2021/06/09 03:14:00;;;;;;;18.20;14.67;;;18.40;99.90;;;;;;5106297;28;20397;-84
2021/06/09 03:16:33;;;;;;;15.67;13.53;;;18.40;99.90;;;;;;5106389;28;20392;-84
2021/06/09 03:19:05;;;;;;;15.20;13.57;;;18.50;99.90;;;;;;5106070;28;20396;-84
2021/06/09 03:21:57;;;;;;;17.20;14.00;;;18.60;99.90;;;;;;5104694;28;20476;-84
2021/06/09 03:24:40;;;;;;;20.33;15.27;;;18.60;99.90;;;;;;5105989;28;20407;-84
2021/06/09 03:27:29;;;;;;;15.50;14.07;;;18.60;99.90;;;;;;5105350;28;20388;-84
2021/06/09 03:30:00;;;;;;;16.27;14.67;;;18.70;99.90;;;;;;5106128;28;20408;-84
2021/06/09 03:32:31;;;;;;;16.03;13.80;;;18.70;99.90;;;;;;5106082;28;20399;-84
2021/06/09 03:35:03;;;;;;;16.50;14.90;;;18.70;99.90;;;;;;5106615;28;20385;-84
2021/06/09 03:37:34;;;;;;;15.63;14.13;;;18.80;99.90;;;;;;5106148;28;20910;-83
2021/06/09 03:40:02;;;;;;;16.17;14.43;;;18.80;99.90;;;;;;5107628;28;20431;-84
2021/06/09 03:42:31;;;;;;;13.47;12.17;;;18.80;99.90;;;;;;5107950;28;20397;-84
2021/06/09 03:44:58;;;;;;;15.50;13.90;;;18.80;99.90;;;;;;5108762;28;20401;-84
2021/06/09 03:47:25;;;;;;;16.60;14.97;;;18.80;99.90;;;;;;5114952;28;20464;-83
2021/06/09 03:49:52;;;;;;;17.13;15.00;;;18.80;99.90;;;;;;5117120;28;20412;-82
2021/06/09 03:52:19;;;;;;;13.90;12.37;;;18.60;99.90;;;;;;5114175;28;20401;-84
2021/06/09 03:54:50;;;;;;;15.00;13.50;;;17.90;99.90;;;;;;5107079;28;20393;-84
2021/06/09 03:57:17;;;;;;;14.53;13.10;;;17.60;99.90;;;;;;5107060;28;20460;-85
2021/06/09 03:59:46;;;;;;;13.67;12.23;;;17.60;99.90;;;;;;5107329;28;20389;-84
2021/06/09 04:02:13;;;;;;;16.67;13.30;;;17.50;99.90;;;;;;5107195;28;20414;-84
2021/06/09 04:04:39;;;;;;;15.83;14.17;;;17.60;99.90;;;;;;5109989;28;20388;-84
2021/06/09 04:07:08;;;;;;;16.83;15.07;;;17.80;99.90;;;;;;5113982;28;20841;-83
2021/06/09 04:09:34;;;;;;;21.53;15.43;;;18.00;99.90;;;;;;5111542;28;20450;-84
2021/06/09 04:12:03;;;;;;;19.77;16.30;;;18.10;99.90;;;;;;5106817;28;20385;-84
2021/06/09 04:14:34;;;;;;;21.67;17.30;;;18.30;99.90;;;;;;5089631;28;20480;-83
2021/06/09 04:17:04;;;;;;;20.93;16.67;;;18.30;99.90;;;;;;5105721;28;20389;-84
2021/06/09 04:19:31;;;;;;;21.17;17.00;;;18.40;99.90;;;;;;5109149;28;20377;-83
2021/06/09 04:21:59;;;;;;;23.40;17.90;;;18.30;99.90;;;;;;5110687;28;20388;-83
2021/06/09 04:24:25;;;;;;;22.73;17.17;;;18.40;99.90;;;;;;5109037;28;20485;-84
2021/06/09 04:26:53;;;;;;;20.30;17.13;;;18.40;99.90;;;;;;5110913;28;20433;-83
2021/06/09 04:29:22;;;;;;;22.57;17.07;;;18.40;99.90;;;;;;5111101;28;20866;-83
2021/06/09 04:31:48;;;;;;;20.40;17.83;;;18.40;99.90;;;;;;5109560;28;20404;-84
2021/06/09 04:34:16;;;;;;;24.53;16.17;;;18.20;99.90;;;;;;5112238;28;20409;-83
2021/06/09 04:36:42;;;;;;;22.07;17.17;;;18.10;99.90;;;;;;5086136;28;20432;-83
2021/06/09 04:39:10;;;;;;;18.23;16.13;;;18.10;99.90;;;;;;5117470;28;20523;-83
2021/06/09 04:41:38;;;;;;;18.33;16.33;;;18.00;99.90;;;;;;5114466;28;20444;-84
2021/06/09 04:44:04;;;;;;;26.20;16.77;;;18.00;99.90;;;;;;5111973;28;20397;-83
2021/06/09 04:46:30;;;;;;;20.23;15.63;;;18.10;99.90;;;;;;5118696;28;20439;-84
2021/06/09 04:48:59;;;;;;;22.67;16.20;;;18.20;99.90;;;;;;5096867;28;20964;-84
2021/06/09 04:51:30;;;;;;;19.80;15.70;;;18.30;99.90;;;;;;5106916;28;20527;-84
2021/06/09 04:53:56;;;;;;;20.27;14.73;;;18.40;99.90;;;;;;5106466;28;20719;-84
2021/06/09 04:56:22;;;;;;;18.50;15.03;;;18.30;99.90;;;;;;5107466;28;20401;-84
2021/06/09 04:58:49;;;;;;;19.37;13.30;;;18.20;99.90;;;;;;5057163;28;20444;-84
2021/06/09 05:01:16;;;;;;;18.10;14.27;;;18.30;99.90;;;;;;5106471;28;20400;-84
2021/06/09 05:03:41;;;;;;;17.63;15.93;;;18.20;99.90;;;;;;5105303;28;20596;-84
2021/06/09 05:06:07;;;;;;;18.70;16.60;;;18.30;99.90;;;;;;5055102;28;20415;-84
2021/06/09 05:08:33;;;;;;;18.90;16.40;;;18.30;99.90;;;;;;5107784;28;20257;-83
2021/06/09 05:11:03;;;;;;;18.50;16.37;;;18.20;99.90;;;;;;5107909;28;20169;-83
2021/06/09 05:13:33;;;;;;;18.23;16.00;;;18.30;99.90;;;;;;5107344;28;20167;-82
2021/06/09 05:16:11;;;;;;;21.70;17.63;;;18.20;99.90;;;;;;5106534;28;20400;-83
2021/06/09 05:18:42;;;;;;;25.13;21.73;;;18.30;99.90;;;;;;5107742;28;20400;-83
2021/06/09 05:21:09;;;;;;;22.90;19.17;;;18.20;99.90;;;;;;5107480;28;20400;-84
2021/06/09 05:23:40;;;;;;;21.93;19.73;;;18.00;99.90;;;;;;5106685;28;20401;-84
2021/06/09 05:26:08;;;;;;;19.20;16.77;;;17.80;99.90;;;;;;5106478;28;20450;-84
2021/06/09 05:28:39;;;;;;;22.00;18.30;;;17.70;99.90;;;;;;5106631;28;20448;-84
2021/06/09 05:31:06;;;;;;;21.50;19.27;;;17.70;99.90;;;;;;5072513;28;20396;-84
2021/06/09 05:33:32;;;;;;;19.90;18.00;;;17.50;99.90;;;;;;5108043;28;20408;-83
2021/06/09 05:35:59;;;;;;;23.13;20.27;;;17.50;99.90;;;;;;5107764;28;20397;-86
2021/06/09 05:38:28;;;;;;;24.10;21.00;;;17.60;99.90;;;;;;5090421;28;20408;-83
2021/06/09 05:40:58;;;;;;;21.93;19.17;;;17.50;99.90;;;;;;5107865;28;20495;-83
2021/06/09 05:43:25;;;;;;;26.37;19.17;;;17.50;99.90;;;;;;5108214;28;20424;-83
2021/06/09 05:45:52;;;;;;;27.70;20.37;;;17.50;99.90;;;;;;5114026;28;20812;-84
2021/06/09 05:48:20;;;;;;;25.27;19.27;;;17.50;99.90;;;;;;5079337;28;20526;-83
2021/06/09 05:50:55;;;;;;;24.97;19.97;;;17.70;99.90;;;;;;5068955;28;20477;-83
2021/06/09 05:53:24;;;;;;;26.40;22.27;;;17.70;99.90;;;;;;5069307;28;20429;-84
2021/06/09 05:55:51;;;;;;;23.10;20.50;;;17.80;99.90;;;;;;5088543;28;20417;-83
2021/06/09 05:58:19;;;;;;;23.20;20.70;;;17.90;99.90;;;;;;5091314;28;20428;-83
2021/06/09 06:00:50;;;;;;;24.27;17.60;;;18.00;99.90;;;;;;5092613;28;20470;-84
2021/06/09 06:03:16;;;;;;;21.00;18.03;;;18.00;99.90;;;;;;5094943;28;20425;-82
2021/06/09 06:06:00;;;;;;;28.33;21.53;;;18.20;99.90;;;;;;5098306;28;20433;-83
2021/06/09 06:08:36;;;;;;;22.77;20.23;;;18.20;99.90;;;;;;5072932;28;20475;-83
2021/06/09 06:11:05;;;;;;;21.80;19.47;;;18.20;99.90;;;;;;5079466;28;20420;-84
2021/06/09 06:13:33;;;;;;;26.77;19.57;;;18.40;99.90;;;;;;5110025;28;20420;-83
2021/06/09 06:15:58;;;;;;;25.30;20.63;;;18.50;99.90;;;;;;5093032;28;20424;-83
2021/06/09 06:18:38;;;;;;;22.30;20.00;;;18.60;99.90;;;;;;5096310;28;20390;-82
2021/06/09 06:21:07;;;;;;;23.50;20.23;;;18.60;99.90;;;;;;5094864;28;20213;-83
2021/06/09 06:23:34;;;;;;;20.37;18.37;;;18.60;99.90;;;;;;5099991;28;20406;-83
2021/06/09 06:26:01;;;;;;;21.30;19.00;;;18.60;99.90;;;;;;5105643;28;20892;-83
2021/06/09 06:28:27;;;;;;;25.60;19.70;;;18.70;99.90;;;;;;5081209;28;20463;-83
2021/06/09 06:30:54;;;;;;;21.57;16.57;;;18.70;99.90;;;;;;5107280;28;20421;-82
2021/06/09 06:33:28;;;;;;;19.57;17.00;;;18.50;99.90;;;;;;5106122;28;20421;-83
2021/06/09 06:35:58;;;;;;;18.93;16.53;;;18.40;99.90;;;;;;5066580;28;20448;-83
2021/06/09 06:38:24;;;;;;;20.07;18.07;;;18.40;99.90;;;;;;5116824;28;20413;-82
2021/06/09 06:40:50;;;;;;;29.17;17.77;;;18.60;99.90;;;;;;5116412;28;20407;-84
2021/06/09 06:43:17;;;;;;;20.33;14.93;;;18.80;99.90;;;;;;5071397;28;20459;-84
2021/06/09 06:45:43;;;;;;;21.43;17.60;;;18.90;99.90;;;;;;5097958;28;20440;-84
2021/06/09 06:48:10;;;;;;;20.93;17.87;;;19.00;99.90;;;;;;5097422;28;20468;-84
2021/06/09 06:50:38;;;;;;;17.53;15.63;;;19.10;99.90;;;;;;5122425;28;20420;-84
2021/06/09 06:53:08;;;;;;;16.70;14.97;;;19.10;99.90;;;;;;5117325;28;20975;-84
2021/06/09 06:55:34;;;;;;;19.77;17.67;;;19.10;99.90;;;;;;5089659;28;20903;-84
2021/06/09 06:58:04;;;;;;;16.83;15.33;;;19.10;99.90;;;;;;5102373;28;20499;-84
2021/06/09 07:00:31;;;;;;;16.43;14.83;;;18.50;99.90;;;;;;5119521;28;20880;-84
2021/06/09 07:03:06;;;;;;;17.50;14.70;;;18.40;99.90;;;;;;5121567;28;20872;-84
2021/06/09 07:05:33;;;;;;;14.83;13.43;;;18.40;99.90;;;;;;5060084;28;20434;-84
2021/06/09 07:08:01;;;;;;;13.13;11.70;;;18.20;99.90;;;;;;5073649;28;20517;-83
2021/06/09 07:10:28;;;;;;;15.10;11.63;;;18.00;99.90;;;;;;5107948;28;20408;-84
2021/06/09 07:12:59;;;;;;;11.77;10.50;;;17.90;99.90;;;;;;5090257;28;20816;-83
2021/06/09 07:15:26;;;;;;;11.97;10.87;;;17.90;99.90;;;;;;5094305;28;20408;-84
2021/06/09 07:17:56;;;;;;;13.73;12.30;;;17.90;99.90;;;;;;5101310;28;20420;-83
2021/06/09 07:20:24;;;;;;;14.03;11.90;;;18.10;99.90;;;;;;5103287;27;20408;-83
2021/06/09 07:23:01;;;;;;;14.23;12.73;;;18.10;99.90;;;;;;5113275;28;20420;-83
2021/06/09 07:25:33;;;;;;;15.37;12.27;;;17.90;99.90;;;;;;5041874;28;20394;-84
2021/06/09 07:28:13;;;;;;;15.00;11.77;;;17.90;99.90;;;;;;5056590;28;20449;-84
2021/06/09 07:30:41;;;;;;;12.00;10.77;;;17.90;99.90;;;;;;5032802;28;20406;-84
2021/06/09 07:33:27;;;;;;;11.80;9.50;;;17.80;99.90;;;;;;5049763;28;20414;-84
2021/06/09 07:36:03;;;;;;;10.57;9.57;;;17.80;99.90;;;;;;5026201;28;20428;-84
2021/06/09 07:38:46;;;;;;;10.43;9.40;;;17.70;99.90;;;;;;4984030;28;20509;-84
2021/06/09 07:41:17;;;;;;;11.27;10.27;;;17.70;99.90;;;;;;4947656;29;20423;-84
2021/06/09 07:43:48;;;;;;;20.60;9.07;;;17.70;99.90;;;;;;4953251;29;20423;-83
2021/06/09 07:46:19;;;;;;;10.63;9.63;;;17.80;99.90;;;;;;4975284;29;20411;-83
2021/06/09 07:48:48;;;;;;;10.80;9.43;;;17.80;99.90;;;;;;4975846;28;20538;-84
2021/06/09 07:51:15;;;;;;;9.70;8.87;;;17.90;99.90;;;;;;4975619;28;20431;-83
2021/06/09 07:53:42;;;;;;;13.00;11.80;;;17.90;99.90;;;;;;4975441;28;20471;-83
2021/06/09 07:56:12;;;;;;;11.73;10.53;;;18.00;99.90;;;;;;4977821;28;20446;-83
2021/06/09 07:58:41;;;;;;;13.87;10.93;;;18.10;99.90;;;;;;4989171;28;20462;-84
2021/06/09 08:01:08;;;;;;;11.67;10.47;;;18.00;99.90;;;;;;4990416;28;20465;-85
2021/06/09 08:03:36;;;;;;;11.53;9.90;;;18.20;99.90;;;;;;4999759;28;20442;-84
2021/06/09 08:06:03;;;;;;;10.57;9.57;;;18.30;99.90;;;;;;5041862;28;20931;-84
2021/06/09 08:08:30;;;;;;;10.90;8.60;;;17.90;99.90;;;;;;5024805;28;20573;-84
2021/06/09 08:10:57;;;;;;;23.80;8.80;;;17.80;99.90;;;;;;5009090;28;20405;-83
2021/06/09 08:13:23;;;;;;;10.20;9.10;;;17.90;99.90;;;;;;5030401;28;20419;-83
2021/06/09 08:15:50;;;;;;;8.17;7.47;;;18.00;99.90;;;;;;5088476;28;20422;-84
2021/06/09 08:18:16;;;;;;;8.90;8.10;;;18.00;99.90;;;;;;5092608;28;20912;-84
2021/06/09 08:21:05;;;;;;;8.83;7.50;;;18.10;99.90;;;;;;5111202;28;20420;-84
2021/06/09 08:23:35;;;;;;;7.87;7.17;;;18.10;99.90;;;;;;5106471;28;20428;-84
2021/06/09 08:26:02;;;;;;;8.00;7.30;;;18.10;99.90;;;;;;5091709;28;20409;-84
2021/06/09 08:28:29;;;;;;;7.83;7.13;;;18.20;99.90;;;;;;5083492;28;20452;-84
2021/06/09 08:30:55;;;;;;;8.77;7.40;;;18.20;99.90;;;;;;5124957;28;20423;-84
2021/06/09 08:33:21;;;;;;;7.60;6.90;;;18.20;99.90;;;;;;5106454;28;20396;-84
2021/06/09 08:35:47;;;;;;;8.20;7.40;;;18.30;99.90;;;;;;5116281;28;20428;-84
2021/06/09 08:38:13;;;;;;;9.27;8.30;;;18.40;99.90;;;;;;5070525;28;20163;-85
2021/06/09 08:40:40;;;;;;;8.43;7.60;;;18.60;99.90;;;;;;5107888;28;20424;-85
2021/06/09 08:43:06;;;;;;;9.50;8.60;;;18.80;99.90;;;;;;5103418;28;20420;-84
2021/06/09 08:45:33;;;;;;;12.47;9.00;;;19.10;99.90;;;;;;5109792;28;20396;-85
2021/06/09 08:48:00;;;;;;;9.80;8.90;;;19.40;99.90;;;;;;5094426;28;20466;-84
2021/06/09 08:50:26;;;;;;;5.67;5.07;;;19.20;99.90;;;;;;5071892;28;20451;-85
2021/06/09 08:52:53;;;;;;;5.50;5.00;;;18.80;99.90;;;;;;5056168;28;20464;-84
2021/06/09 08:55:20;;;;;;;7.67;7.07;;;18.70;99.90;;;;;;5082901;28;20530;-83
2021/06/09 08:57:46;;;;;;;7.37;6.73;;;18.80;99.90;;;;;;5117844;28;20891;-82
2021/06/09 09:00:15;;;;;;;8.33;7.60;;;18.90;99.90;;;;;;5104141;28;20427;-83
2021/06/09 09:02:41;;;;;;;10.13;9.23;;;19.20;99.90;;;;;;5117951;28;20569;-82
2021/06/09 09:05:10;;;;;;;9.60;8.60;;;19.50;99.90;;;;;;5123766;28;20856;-83
2021/06/09 09:07:36;;;;;;;10.07;9.13;;;19.90;99.90;;;;;;5080512;28;20209;-83
2021/06/09 09:10:05;;;;;;;10.93;8.70;;;20.00;99.90;;;;;;5112184;28;20423;-83
2021/06/09 09:12:34;;;;;;;9.57;8.20;;;19.90;99.90;;;;;;5103897;28;20889;-83
2021/06/09 09:15:00;;;;;;;8.30;7.50;;;20.30;99.90;;;;;;5115277;28;20420;-84
2021/06/09 09:17:26;;;;;;;8.80;8.00;;;20.60;99.90;;;;;;5093831;28;20389;-84
2021/06/09 09:20:06;;;;;;;10.23;9.27;;;20.80;99.90;;;;;;5114944;27;20404;-84
2021/06/09 09:22:36;;;;;;;8.90;8.00;;;21.00;99.90;;;;;;5132956;27;20735;-84
2021/06/09 09:25:12;;;;;;;7.50;6.43;;;20.30;99.90;;;;;;5138043;27;20430;-84
2021/06/09 09:27:39;;;;;;;7.97;6.90;;;20.20;99.90;;;;;;5099860;28;20544;-84
2021/06/09 09:30:11;;;;;;;7.00;6.30;;;20.50;99.90;;;;;;5091359;28;20412;-84
2021/06/09 09:32:56;;;;;;;7.00;6.30;;;20.40;99.90;;;;;;5112739;28;20419;-83
2021/06/09 09:35:28;;;;;;;6.80;6.20;;;20.60;99.90;;;;;;5105804;28;20577;-85
2021/06/09 09:38:30;;;;;;;6.80;6.00;;;21.10;99.90;;;;;;5088593;28;20751;-82
2021/06/09 09:41:03;;;;;;;6.47;5.90;;;21.00;99.90;;;;;;5128942;28;20400;-83
2021/06/09 09:43:41;;;;;;;6.90;5.90;;;20.90;99.90;;;;;;5110116;28;21032;-83
2021/06/09 09:46:09;;;;;;;4.83;4.43;;;21.10;99.90;;;;;;5127118;28;20486;-83
2021/06/09 09:48:38;;;;;;;4.00;3.63;;;21.30;99.90;;;;;;5098957;28;20467;-83
2021/06/09 09:51:05;;;;;;;6.73;4.60;;;21.20;99.90;;;;;;5106906;28;20622;-84
2021/06/09 09:53:31;;;;;;;5.20;4.70;;;21.50;99.90;;;;;;5108301;28;20499;-84
2021/06/09 09:56:05;;;;;;;4.37;3.97;;;20.80;99.90;;;;;;5106920;28;20397;-84
2021/06/09 09:58:37;;;;;;;4.90;4.50;;;20.60;99.90;;;;;;5117920;28;20628;-86
2021/06/09 10:01:13;;;;;;;4.23;3.93;;;20.60;99.90;;;;;;5120388;28;20778;-84
2021/06/09 10:03:41;;;;;;;4.50;4.20;;;21.20;99.90;;;;;;5126016;28;20415;-84
2021/06/09 10:06:26;;;;;;;4.03;3.73;;;21.50;99.90;;;;;;5121111;28;20774;-84
2021/06/09 10:08:54;;;;;;;6.43;4.37;;;21.60;99.90;;;;;;5128326;28;20451;-84
2021/06/09 10:11:21;;;;;;;4.20;3.50;;;22.10;99.90;;;;;;5087688;28;20454;-84
2021/06/09 10:13:48;;;;;;;5.20;3.53;;;22.50;99.90;;;;;;5097175;28;20788;-84
2021/06/09 10:16:36;;;;;;;3.57;3.27;;;22.60;99.90;;;;;;5103637;28;20431;-84
2021/06/09 10:19:05;;;;;;;4.27;3.97;;;22.20;99.90;;;;;;5062868;28;20434;-85
2021/06/09 10:21:33;;;;;;;11.67;3.63;;;22.10;99.90;;;;;;5071408;28;20429;-84
2021/06/09 10:24:01;;;;;;;3.40;3.20;;;22.00;99.90;;;;;;5081484;28;20434;-83
2021/06/09 10:26:27;;;;;;;15.80;3.90;;;22.40;99.90;;;;;;5073229;28;20430;-84
2021/06/09 10:29:05;;;;;;;4.37;3.97;;;22.70;99.90;;;;;;5057647;28;20825;-85
2021/06/09 10:31:34;;;;;;;4.27;3.93;;;22.90;99.90;;;;;;5070186;28;20501;-85
2021/06/09 10:34:00;;;;;;;3.50;3.30;;;22.50;99.90;;;;;;5066662;28;20438;-84
2021/06/09 10:36:48;;;;;;;4.83;4.37;;;23.20;99.90;;;;;;5079950;28;20432;-84
2021/06/09 10:39:15;;;;;;;4.20;3.80;;;22.40;99.90;;;;;;5043980;28;20431;-84
2021/06/09 10:41:45;;;;;;;6.10;4.70;;;22.40;99.90;;;;;;5038007;28;20426;-84
2021/06/09 10:44:12;;;;;;;4.93;4.43;;;22.60;99.90;;;;;;5032797;28;20434;-84
2021/06/09 10:46:42;;;;;;;5.90;5.30;;;22.70;99.90;;;;;;5042622;28;20420;-84
2021/06/09 10:49:10;;;;;;;4.10;3.77;;;22.60;99.90;;;;;;5063396;28;20496;-83
2021/06/09 10:51:37;;;;;;;4.47;4.17;;;22.90;99.90;;;;;;5089265;28;20444;-84
2021/06/09 10:54:10;;;;;;;4.47;4.07;;;22.60;99.90;;;;;;5059423;28;20540;-83
2021/06/09 10:56:38;;;;;;;5.07;4.00;;;22.70;99.90;;;;;;5026618;28;20427;-84
2021/06/09 10:59:05;;;;;;;7.70;4.30;;;22.70;99.90;;;;;;5029017;28;20411;-84
2021/06/09 11:01:31;;;;;;;4.47;4.07;;;23.10;99.90;;;;;;5026769;28;20435;-85
2021/06/09 11:04:00;;;;;;;6.03;5.53;;;23.30;99.90;;;;;;5027991;28;20558;-85
2021/06/09 11:06:39;;;;;;;5.20;4.80;;;23.10;99.90;;;;;;5009922;28;20936;-84
2021/06/09 11:09:14;;;;;;;5.20;4.83;;;23.00;99.90;;;;;;5024011;28;20455;-83
2021/06/09 11:11:41;;;;;;;4.70;4.30;;;23.40;99.90;;;;;;5060376;28;20505;-84
2021/06/09 11:14:20;;;;;;;7.10;6.50;;;23.60;99.90;;;;;;5071956;28;20417;-83
2021/06/09 11:16:51;;;;;;;5.67;5.27;;;23.60;99.90;;;;;;5034715;28;20419;-84
2021/06/09 11:19:42;;;;;;;5.63;5.00;;;24.00;99.90;;;;;;5048831;28;20460;-84
2021/06/09 11:22:19;;;;;;;5.30;4.90;;;24.70;99.90;;;;;;5054125;28;20441;-84
2021/06/09 11:25:17;;;;;;;5.20;4.80;;;24.00;99.90;;;;;;5054812;28;20444;-84
2021/06/09 11:27:56;;;;;;;4.83;4.33;;;23.70;99.90;;;;;;5074368;28;20449;-84
2021/06/09 11:30:48;;;;;;;4.23;3.93;;;23.50;99.90;;;;;;5120100;28;20407;-84
2021/06/09 11:33:30;;;;;;;4.90;4.50;;;23.90;99.90;;;;;;5091140;28;20420;-84
2021/06/09 11:35:58;;;;;;;6.43;4.83;;;24.80;99.90;;;;;;5113754;28;20395;-84
2021/06/09 11:38:26;;;;;;;5.60;5.10;;;25.30;99.90;;;;;;5107896;28;20476;-85
2021/06/09 11:41:01;;;;;;;4.50;4.10;;;24.70;99.90;;;;;;5094814;28;20488;-84
2021/06/09 11:43:39;;;;;;;5.03;4.07;;;24.30;99.90;;;;;;5108627;28;20468;-84
2021/06/09 11:46:08;;;;;;;4.37;3.83;;;25.30;99.90;;;;;;5075279;28;20400;-84
2021/06/09 11:48:36;;;;;;;4.50;4.20;;;25.80;99.90;;;;;;5112762;28;20463;-84
2021/06/09 11:51:33;;;;;;;4.27;3.97;;;25.20;99.90;;;;;;5080728;28;20380;-83
2021/06/09 11:54:05;;;;;;;4.80;4.43;;;24.70;99.90;;;;;;5114836;28;20391;-85
2021/06/09 11:56:44;;;;;;;5.17;4.77;;;25.20;99.90;;;;;;5107160;28;20489;-84
2021/06/09 11:59:22;;;;;;;5.60;5.10;;;25.30;99.90;;;;;;5098718;28;20455;-86
2021/06/09 12:01:49;;;;;;;4.43;4.03;;;25.10;99.90;;;;;;5126434;28;20434;-85
2021/06/09 12:04:25;;;;;;;4.80;4.40;;;25.00;99.90;;;;;;5108567;28;20402;-85
2021/06/09 12:06:58;;;;;;;4.30;4.00;;;25.50;99.90;;;;;;5096368;28;20970;-86
2021/06/09 12:09:31;;;;;;;4.67;4.23;;;25.40;99.90;;;;;;5113663;28;20459;-84
2021/06/09 12:12:00;;;;;;;5.57;5.03;;;25.50;99.90;;;;;;5088496;28;20951;-84
2021/06/09 12:14:30;;;;;;;4.30;4.00;;;25.50;99.90;;;;;;5061260;28;20468;-83
2021/06/09 12:17:15;;;;;;;4.23;3.93;;;25.70;99.90;;;;;;5063370;28;20563;-85
2021/06/09 12:19:45;;;;;;;3.90;3.60;;;26.60;99.90;;;;;;5052879;28;20429;-85
2021/06/09 12:22:15;;;;;;;4.83;4.50;;;27.10;99.90;;;;;;5046365;28;20401;-84
2021/06/09 12:24:42;;;;;;;4.03;3.67;;;27.40;99.90;;;;;;5029509;28;20425;-84
2021/06/09 12:27:11;;;;;;;4.00;3.60;;;27.30;99.90;;;;;;5059051;28;20505;-85
2021/06/09 12:29:40;;;;;;;4.30;4.00;;;27.70;99.90;;;;;;5060324;28;20465;-84
2021/06/09 12:32:18;;;;;;;4.50;4.20;;;28.30;99.90;;;;;;5053614;28;20425;-84
2021/06/09 12:35:01;;;;;;;6.00;5.60;;;28.70;99.90;;;;;;5051114;28;20409;-85
2021/06/09 12:37:29;;;;;;;6.33;5.83;;;28.60;99.90;;;;;;5070584;28;20401;-84
2021/06/09 12:40:04;;;;;;;5.37;4.90;;;27.50;99.90;;;;;;5079421;28;20394;-83
2021/06/09 12:42:33;;;;;;;5.73;5.33;;;26.40;99.90;;;;;;5076590;28;20412;-84
2021/06/09 12:45:05;;;;;;;5.80;5.40;;;26.60;99.90;;;;;;5091867;28;20427;-84
2021/06/09 12:47:36;;;;;;;5.60;5.20;;;26.90;99.90;;;;;;5127021;28;20451;-84